Seyfert, Pennsylvania
Current Conditions -  °F | °C
As of 8:54 AM on Tuesday 27 Jan 2015 (Local Time) from KRDG Reporting Station
Few Clouds Few Clouds  
Wind Chill: 13°   Ceiling: Unl
Heat Index: 25°   Visibility: 10mi
Dew Point: 16°   Wind: 15mph
Humidity: 69%   Direction: 350°N
Pressure: 29.77"   Gusts: 21mph
Location:  40.2313°N, 75.8555°W
Report Text: KRDG 271354Z 35013G18KT 10SM FEW024 M04/M09 A2977 RMK AO2 SLP089 T10391089
Loading
Personal Weather Stations






























Interactive Weather Map New forecast layout! Learn more

10-Day Weather Forecast

Advertisements
Track Severe Weather on mobile